createdAt,value
2023-04-10T00:02:08.895Z,83.29
2023-04-10T00:04:35.682Z,85.20
2023-04-10T00:07:02.452Z,85.99
2023-04-10T00:09:29.719Z,85.23
2023-04-10T00:11:56.750Z,85.20
2023-04-10T00:14:24.544Z,84.41
2023-04-10T00:16:51.404Z,83.59
2023-04-10T00:19:18.171Z,86.12
2023-04-10T00:21:44.783Z,85.39
2023-04-10T00:24:11.435Z,84.56
2023-04-10T00:26:38.087Z,83.92
2023-04-10T00:29:04.902Z,83.37
2023-04-10T00:31:32.156Z,83.35
2023-04-10T00:33:58.761Z,83.38
2023-04-10T00:36:26.930Z,83.97
2023-04-10T00:38:53.840Z,84.25
2023-04-10T00:41:20.584Z,84.02
2023-04-10T00:43:47.264Z,84.45
2023-04-10T00:46:14.033Z,84.19
2023-04-10T00:48:41.386Z,84.65
2023-04-10T00:51:08.225Z,83.53
2023-04-10T00:53:34.860Z,83.21
2023-04-10T00:56:02.313Z,82.94
2023-04-10T00:58:28.944Z,83.48
2023-04-10T01:00:56.381Z,83.33
2023-04-10T01:03:24.655Z,84.12
2023-04-10T01:06:07.260Z,83.79
2023-04-10T01:08:42.944Z,83.55
2023-04-10T01:11:39.752Z,83.78
2023-04-10T01:14:22.067Z,83.80
2023-04-10T01:17:02.329Z,83.71
2023-04-10T01:20:07.218Z,84.16
2023-04-10T01:22:52.229Z,83.96
2023-04-10T01:25:43.764Z,83.72
2023-04-10T01:28:22.170Z,84.23
2023-04-10T01:30:52.531Z,85.56
2023-04-10T01:33:22.814Z,86.00
2023-04-10T01:35:52.524Z,85.76
2023-04-10T01:38:21.542Z,86.01
2023-04-10T01:40:52.637Z,87.04
2023-04-10T01:43:22.322Z,86.63
2023-04-10T01:45:51.332Z,86.50
2023-04-10T01:48:18.936Z,87.47
2023-04-10T01:50:47.234Z,86.38
2023-04-10T01:53:14.496Z,86.94
2023-04-10T01:55:42.358Z,88.13
2023-04-10T01:58:09.168Z,91.26
2023-04-10T02:00:41.319Z,91.39
2023-04-10T02:03:08.690Z,91.17
2023-04-10T02:06:03.895Z,89.68
2023-04-10T02:08:37.848Z,89.62
2023-04-10T02:11:16.232Z,91.45
2023-04-10T02:13:43.343Z,91.37
2023-04-10T02:16:13.966Z,89.66
2023-04-10T02:18:42.671Z,90.45
2023-04-10T02:21:09.519Z,90.25
2023-04-10T02:23:37.107Z,90.05
2023-04-10T02:26:08.599Z,91.70
2023-04-10T02:28:38.156Z,92.53
2023-04-10T02:31:04.985Z,91.74
2023-04-10T02:33:31.764Z,91.28
2023-04-10T02:35:58.366Z,90.85
2023-04-10T02:38:25.049Z,91.43
2023-04-10T02:40:51.713Z,90.85
2023-04-10T02:43:18.899Z,90.44
2023-04-10T02:45:45.569Z,90.06
2023-04-10T02:48:12.805Z,90.73
2023-04-10T02:50:39.792Z,89.77
2023-04-10T02:53:06.464Z,90.71
2023-04-10T02:55:33.135Z,91.26
2023-04-10T02:57:59.730Z,89.82
2023-04-10T03:00:26.800Z,89.09
2023-04-10T03:02:53.976Z,89.43
2023-04-10T03:05:20.871Z,88.96
2023-04-10T03:07:47.483Z,88.91
2023-04-10T03:10:14.216Z,90.19
2023-04-10T03:12:40.861Z,89.54
2023-04-10T03:15:08.076Z,88.46
2023-04-10T03:17:35.116Z,89.21
2023-04-10T03:20:01.695Z,88.87
2023-04-10T03:22:30.448Z,88.88
2023-04-10T03:24:57.727Z,88.96
2023-04-10T03:27:24.374Z,89.36
2023-04-10T03:29:51.007Z,88.54
2023-04-10T03:32:17.643Z,89.46
2023-04-10T03:34:44.209Z,89.76
2023-04-10T03:37:11.030Z,90.01
2023-04-10T03:39:37.676Z,90.11
2023-04-10T03:42:04.328Z,89.56
2023-04-10T03:44:31.111Z,89.41
2023-04-10T03:46:57.748Z,90.02
2023-04-10T03:49:24.414Z,89.39
2023-04-10T03:51:51.463Z,88.86
2023-04-10T03:54:18.090Z,88.65
2023-04-10T03:56:44.776Z,88.52
2023-04-10T03:59:11.362Z,88.12
2023-04-10T04:01:38.317Z,88.79
2023-04-10T04:04:06.143Z,88.20
2023-04-10T04:06:32.817Z,89.16
2023-04-10T04:08:59.418Z,89.17
2023-04-10T04:11:26.029Z,88.48
2023-04-10T04:13:53.018Z,88.67
2023-04-10T04:16:19.901Z,88.79
2023-04-10T04:18:46.515Z,89.79
2023-04-10T04:21:13.216Z,88.84
2023-04-10T04:23:39.993Z,88.87
2023-04-10T04:26:06.971Z,87.99
2023-04-10T04:28:33.610Z,88.60
2023-04-10T04:31:01.015Z,88.48
2023-04-10T04:33:27.667Z,89.97
2023-04-10T04:35:54.327Z,90.49
2023-04-10T04:38:21.116Z,90.02
2023-04-10T04:40:47.797Z,90.64
2023-04-10T04:43:14.381Z,90.54
2023-04-10T04:45:41.044Z,89.87
2023-04-10T04:48:07.714Z,90.32
2023-04-10T04:50:34.692Z,90.69
2023-04-10T04:53:01.414Z,91.28
2023-04-10T04:55:28.085Z,91.26
2023-04-10T04:57:54.741Z,91.34
2023-04-10T05:00:21.494Z,91.64
2023-04-10T05:02:48.271Z,91.85
2023-04-10T05:05:15.923Z,91.74
2023-04-10T05:07:42.545Z,91.93
2023-04-10T05:10:09.296Z,91.91
2023-04-10T05:12:36.322Z,92.46
2023-04-10T05:15:03.562Z,92.33
2023-04-10T05:17:30.357Z,92.08
2023-04-10T05:19:57.050Z,92.44
2023-04-10T05:22:23.638Z,92.39
2023-04-10T05:24:50.430Z,92.65
2023-04-10T05:27:17.823Z,92.25
2023-04-10T05:29:44.463Z,92.11
2023-04-10T05:32:11.084Z,92.10
2023-04-10T05:34:37.751Z,91.85
2023-04-10T05:37:04.337Z,91.71
2023-04-10T05:39:31.073Z,91.66
2023-04-10T05:41:58.344Z,91.98
2023-04-10T05:44:24.933Z,92.19
2023-04-10T05:46:51.680Z,92.03
2023-04-10T05:49:18.386Z,91.59
2023-04-10T05:51:45.038Z,92.94
2023-04-10T05:54:11.681Z,92.43
2023-04-10T05:56:38.428Z,92.43
2023-04-10T05:59:05.123Z,92.04
2023-04-10T06:01:31.753Z,91.40
2023-04-10T06:03:58.502Z,91.68
2023-04-10T06:06:26.334Z,92.50
2023-04-10T06:08:53.508Z,93.33
2023-04-10T06:11:21.201Z,92.66
2023-04-10T06:13:47.897Z,92.79
2023-04-10T06:16:15.623Z,93.41
2023-04-10T06:18:42.617Z,93.30
2023-04-10T06:21:09.613Z,92.54
2023-04-10T06:23:37.314Z,92.30
2023-04-10T06:26:04.154Z,92.47
2023-04-10T06:28:30.946Z,92.32
2023-04-10T06:30:57.776Z,93.08
2023-04-10T06:33:26.350Z,92.83
2023-04-10T06:35:53.140Z,92.62
2023-04-10T06:38:19.907Z,91.95
2023-04-10T06:40:46.763Z,92.34
2023-04-10T06:43:13.475Z,92.18
2023-04-10T06:45:40.484Z,92.20
2023-04-10T06:48:07.190Z,91.68
2023-04-10T06:50:33.886Z,91.95
2023-04-10T06:53:00.741Z,92.30
2023-04-10T06:55:27.404Z,92.21
2023-04-10T06:57:56.085Z,92.22
2023-04-10T07:00:23.734Z,91.17
2023-04-10T07:02:50.475Z,90.47
2023-04-10T07:05:17.735Z,90.31
2023-04-10T07:07:44.482Z,90.50
2023-04-10T07:10:11.304Z,90.45
2023-04-10T07:12:37.856Z,88.63
2023-04-10T07:15:05.068Z,88.56
2023-04-10T07:17:31.678Z,87.06
2023-04-10T07:19:58.375Z,86.66
2023-04-10T07:22:25.022Z,85.83
2023-04-10T07:24:51.643Z,85.59
2023-04-10T07:27:18.393Z,84.31
2023-04-10T07:29:44.998Z,85.45
2023-04-10T07:32:11.734Z,84.23
2023-04-10T07:34:38.446Z,81.32
2023-04-10T07:37:05.356Z,81.61
2023-04-10T07:39:32.018Z,80.53
2023-04-10T07:41:58.702Z,79.79
2023-04-10T07:44:26.713Z,78.45
2023-04-10T07:46:53.933Z,77.55
2023-04-10T07:49:20.680Z,76.06
2023-04-10T07:51:47.296Z,75.04
2023-04-10T07:54:13.909Z,73.73
2023-04-10T07:56:40.519Z,72.54
2023-04-10T07:59:07.227Z,72.31
2023-04-10T08:01:34.128Z,71.08
2023-04-10T08:04:02.881Z,69.79
2023-04-10T08:06:32.382Z,68.10
2023-04-10T08:08:59.036Z,67.89
2023-04-10T08:11:28.489Z,68.63
2023-04-10T08:14:01.568Z,66.81
2023-04-10T08:16:30.390Z,67.63
2023-04-10T08:18:58.153Z,66.42
2023-04-10T08:21:29.240Z,66.81
2023-04-10T08:23:57.706Z,65.82
2023-04-10T08:26:26.208Z,66.42
2023-04-10T08:28:54.456Z,66.91
2023-04-10T08:31:23.208Z,66.18
2023-04-10T08:33:49.962Z,66.37
2023-04-10T08:36:19.633Z,65.79
2023-04-10T08:38:47.827Z,66.04
2023-04-10T08:41:16.232Z,64.26
2023-04-10T08:43:43.895Z,63.76
2023-04-10T08:46:11.202Z,61.49
2023-04-10T08:48:52.663Z,59.23
2023-04-10T08:51:26.214Z,57.39
2023-04-10T08:53:57.032Z,58.33
2023-04-10T08:56:24.755Z,53.58
2023-04-10T08:58:52.100Z,53.61
2023-04-10T09:01:21.375Z,53.65
2023-04-10T09:03:48.838Z,50.46
2023-04-10T09:06:15.719Z,49.80
2023-04-10T09:08:42.337Z,51.30
2023-04-10T09:11:09.080Z,50.23
2023-04-10T09:13:41.410Z,51.29
2023-04-10T09:16:09.862Z,52.02
2023-04-10T09:18:51.330Z,52.51
2023-04-10T09:21:22.102Z,51.57
2023-04-10T09:23:59.534Z,51.41
2023-04-10T09:26:31.711Z,48.30
2023-04-10T09:29:06.457Z,49.22
2023-04-10T09:31:35.409Z,48.30
2023-04-10T09:34:09.109Z,51.39
2023-04-10T09:36:37.352Z,47.06
2023-04-10T09:39:08.325Z,48.68
2023-04-10T09:41:35.109Z,49.05
2023-04-10T09:44:10.674Z,47.86
2023-04-10T09:46:37.792Z,48.37
2023-04-10T09:49:07.702Z,49.66
2023-04-10T09:51:36.020Z,48.28
2023-04-10T09:54:04.297Z,48.54
2023-04-10T09:56:31.432Z,46.19
2023-04-10T09:59:00.395Z,48.65
2023-04-10T10:01:34.575Z,47.19
2023-04-10T10:04:03.853Z,47.14
2023-04-10T10:06:34.769Z,46.90
2023-04-10T10:09:05.444Z,48.13
2023-04-10T10:11:35.852Z,48.95
2023-04-10T10:14:07.643Z,44.44
2023-04-10T10:16:46.855Z,45.39
2023-04-10T10:19:22.259Z,47.61
2023-04-10T10:21:49.461Z,47.21
2023-04-10T10:24:17.186Z,45.79
2023-04-10T10:26:45.417Z,44.82
2023-04-10T10:29:15.076Z,46.47
2023-04-10T10:31:42.861Z,43.82
2023-04-10T10:34:09.830Z,45.27
2023-04-10T10:36:37.274Z,46.19
2023-04-10T10:39:11.559Z,43.46
2023-04-10T10:41:49.698Z,44.75
2023-04-10T10:44:57.582Z,44.12
2023-04-10T10:47:29.118Z,44.85
2023-04-10T10:50:03.555Z,45.55
2023-04-10T10:52:45.809Z,44.23
2023-04-10T10:55:24.809Z,43.27
2023-04-10T10:57:55.306Z,43.83
2023-04-10T11:00:24.515Z,43.60
2023-04-10T11:03:09.380Z,44.21
2023-04-10T11:05:55.391Z,40.06
2023-04-10T11:08:48.136Z,41.45
2023-04-10T11:11:23.634Z,42.48
2023-04-10T11:13:53.110Z,41.94
2023-04-10T11:16:20.494Z,44.68
2023-04-10T11:18:59.403Z,41.44
2023-04-10T11:21:36.260Z,40.53
2023-04-10T11:24:04.639Z,41.43
2023-04-10T11:26:42.890Z,41.95
2023-04-10T11:29:18.721Z,39.06
2023-04-10T11:31:56.649Z,41.83
2023-04-10T11:34:23.737Z,42.29
2023-04-10T11:36:50.673Z,40.69
2023-04-10T11:39:19.137Z,42.85
2023-04-10T11:41:53.552Z,40.13
2023-04-10T11:44:26.420Z,38.26
2023-04-10T11:46:53.942Z,41.06
2023-04-10T11:49:22.779Z,41.53
2023-04-10T11:51:51.167Z,40.68
2023-04-10T11:54:19.848Z,41.70
2023-04-10T11:56:57.114Z,36.22
2023-04-10T11:59:24.689Z,37.88
2023-04-10T12:01:54.367Z,40.09
2023-04-10T12:04:22.832Z,36.61
2023-04-10T12:06:52.079Z,37.00
2023-04-10T12:09:21.276Z,37.23
2023-04-10T12:11:53.080Z,40.13
2023-04-10T12:14:24.068Z,39.89
2023-04-10T12:16:51.694Z,39.33
2023-04-10T12:19:19.306Z,34.71
2023-04-10T12:21:46.540Z,35.17
2023-04-10T12:24:13.358Z,38.75
2023-04-10T12:26:48.378Z,33.60
2023-04-10T12:29:14.972Z,34.43
2023-04-10T12:31:41.768Z,36.39
2023-04-10T12:34:11.174Z,35.68
2023-04-10T12:36:38.177Z,37.28
2023-04-10T12:39:05.728Z,37.36
2023-04-10T12:41:34.372Z,37.24
2023-04-10T12:44:12.913Z,35.13
2023-04-10T12:46:41.450Z,36.34
2023-04-10T12:49:18.475Z,35.06
2023-04-10T12:51:50.586Z,35.11
2023-04-10T12:54:46.745Z,37.70
2023-04-10T12:57:27.201Z,36.84
2023-04-10T12:59:53.796Z,34.72
2023-04-10T13:02:21.349Z,38.24
2023-04-10T13:04:48.149Z,35.69
2023-04-10T13:07:14.767Z,34.53
2023-04-10T13:09:41.398Z,36.30
2023-04-10T13:12:08.091Z,35.46
2023-04-10T13:14:34.706Z,36.10
2023-04-10T13:17:01.303Z,37.07
2023-04-10T13:19:27.906Z,35.71
2023-04-10T13:21:54.490Z,35.90
2023-04-10T13:24:21.878Z,36.39
2023-04-10T13:26:48.500Z,34.71
2023-04-10T13:29:15.116Z,35.33
2023-04-10T13:31:41.770Z,35.83
2023-04-10T13:34:08.472Z,35.84
2023-04-10T13:36:35.173Z,35.91
2023-04-10T13:39:01.828Z,35.92
2023-04-10T13:41:28.487Z,36.76
2023-04-10T13:43:55.179Z,35.38
2023-04-10T13:46:21.975Z,37.60
2023-04-10T13:48:48.666Z,38.00
2023-04-10T13:51:15.391Z,37.94
2023-04-10T13:53:42.037Z,37.82
2023-04-10T13:56:09.196Z,37.41
2023-04-10T13:58:36.013Z,35.51
2023-04-10T14:01:02.728Z,38.00
2023-04-10T14:03:29.568Z,37.44
2023-04-10T14:05:56.331Z,37.79
2023-04-10T14:08:24.270Z,36.06
2023-04-10T14:10:51.489Z,37.58
2023-04-10T14:13:19.053Z,39.62
2023-04-10T14:15:46.172Z,38.57
2023-04-10T14:18:12.847Z,39.43
2023-04-10T14:20:42.345Z,38.48
2023-04-10T14:23:09.552Z,39.64
2023-04-10T14:25:36.197Z,38.33
2023-04-10T14:28:02.949Z,36.71
2023-04-10T14:30:31.045Z,37.49
2023-04-10T14:32:57.983Z,37.88
2023-04-10T14:35:24.909Z,37.91
2023-04-10T14:37:51.597Z,36.17
2023-04-10T14:40:18.204Z,35.93
2023-04-10T14:42:45.908Z,36.55
2023-04-10T14:45:12.546Z,37.40
2023-04-10T14:47:39.297Z,35.96
2023-04-10T14:50:06.766Z,35.28
2023-04-10T14:52:33.517Z,35.79
2023-04-10T14:55:00.131Z,35.90
2023-04-10T14:57:26.759Z,37.11
2023-04-10T14:59:53.348Z,36.40
2023-04-10T15:02:20.130Z,36.29
2023-04-10T15:04:47.043Z,37.10
2023-04-10T15:07:14.246Z,36.73
2023-04-10T15:09:41.001Z,34.95
2023-04-10T15:12:07.803Z,36.60
2023-04-10T15:14:34.554Z,36.12
2023-04-10T15:17:01.216Z,35.74
2023-04-10T15:19:28.032Z,35.79
2023-04-10T15:21:55.727Z,35.89
2023-04-10T15:24:22.520Z,36.26
2023-04-10T15:26:49.110Z,36.38
2023-04-10T15:29:15.980Z,36.58
2023-04-10T15:31:42.637Z,37.16
2023-04-10T15:34:09.327Z,36.73
2023-04-10T15:36:36.058Z,38.22
2023-04-10T15:39:06.386Z,37.23
2023-04-10T15:41:33.264Z,37.52
2023-04-10T15:44:00.203Z,38.84
2023-04-10T15:46:27.183Z,38.68
2023-04-10T15:48:53.934Z,38.36
2023-04-10T15:51:21.424Z,38.05
2023-04-10T15:53:48.044Z,37.99
2023-04-10T15:56:16.117Z,37.71
2023-04-10T15:58:42.796Z,36.67
2023-04-10T16:01:09.418Z,37.17
2023-04-10T16:03:36.398Z,38.77
2023-04-10T16:06:03.262Z,38.63
2023-04-10T16:08:30.060Z,37.56
2023-04-10T16:10:56.733Z,38.96
2023-04-10T16:13:23.364Z,38.41
2023-04-10T16:15:50.517Z,39.26
2023-04-10T16:18:17.295Z,39.60
2023-04-10T16:20:44.004Z,39.79
2023-04-10T16:23:10.633Z,40.10
2023-04-10T16:25:37.264Z,40.19
2023-04-10T16:28:06.552Z,40.43
2023-04-10T16:30:33.760Z,40.34
2023-04-10T16:33:01.018Z,40.05
2023-04-10T16:35:27.831Z,41.32
2023-04-10T16:37:54.640Z,41.10
2023-04-10T16:40:21.807Z,41.23
2023-04-10T16:42:48.410Z,40.88
2023-04-10T16:45:15.524Z,41.60
2023-04-10T16:47:44.628Z,41.84
2023-04-10T16:50:11.542Z,41.93
2023-04-10T16:52:38.267Z,41.85
2023-04-10T16:55:05.370Z,41.43
2023-04-10T16:57:33.577Z,42.66
2023-04-10T17:00:00.485Z,42.48
2023-04-10T17:02:28.416Z,41.69
2023-04-10T17:04:55.968Z,42.15
2023-04-10T17:07:23.744Z,42.19
2023-04-10T17:09:50.681Z,42.46
2023-04-10T17:12:17.438Z,42.21
2023-04-10T17:14:44.536Z,42.42
2023-04-10T17:17:11.415Z,41.89
2023-04-10T17:19:38.636Z,41.97
2023-04-10T17:22:06.241Z,42.55
2023-04-10T17:24:32.836Z,43.47
2023-04-10T17:27:01.025Z,42.91
2023-04-10T17:29:27.617Z,43.65
2023-04-10T17:31:54.215Z,43.02
2023-04-10T17:34:20.862Z,43.36
2023-04-10T17:36:49.312Z,42.68
2023-04-10T17:39:16.016Z,42.67
2023-04-10T17:41:42.621Z,42.83
2023-04-10T17:44:10.573Z,44.11
2023-04-10T17:46:37.223Z,44.14
2023-04-10T17:49:04.391Z,43.07
2023-04-10T17:51:31.746Z,43.42
2023-04-10T17:53:58.768Z,44.09
2023-04-10T17:56:26.221Z,44.26
2023-04-10T17:58:54.766Z,44.50
2023-04-10T18:58:59.090Z,44.04
2023-04-10T19:01:26.078Z,43.98
2023-04-10T19:03:54.990Z,44.20
2023-04-10T19:06:24.747Z,43.22
2023-04-10T19:08:51.492Z,42.84
2023-04-10T19:11:18.714Z,43.74
2023-04-10T19:13:45.596Z,44.74
2023-04-10T19:16:19.324Z,43.24
2023-04-10T19:18:47.427Z,44.34
2023-04-10T19:21:14.364Z,44.32
2023-04-10T19:23:41.363Z,44.06
2023-04-10T19:26:09.785Z,43.41
2023-04-10T19:28:36.505Z,44.14
2023-04-10T19:31:03.424Z,44.00
2023-04-10T19:33:30.368Z,43.84
2023-04-10T19:35:58.240Z,43.81
2023-04-10T19:38:25.021Z,43.66
2023-04-10T19:40:51.780Z,42.90
2023-04-10T19:43:18.415Z,43.86
2023-04-10T19:45:45.300Z,42.80
2023-04-10T19:48:12.306Z,43.39
2023-04-10T19:50:38.900Z,42.88
2023-04-10T19:53:05.734Z,42.88
2023-04-10T19:55:32.383Z,43.06
2023-04-10T19:57:59.031Z,42.91
2023-04-10T20:00:25.680Z,42.97
2023-04-10T20:02:52.768Z,43.67
2023-04-10T20:05:19.851Z,42.89
2023-04-10T20:07:46.857Z,42.19
2023-04-10T20:10:13.477Z,42.22
2023-04-10T20:12:40.110Z,41.57
2023-04-10T20:15:07.471Z,43.28
2023-04-10T20:17:34.308Z,43.03
2023-04-10T20:20:00.895Z,43.01
2023-04-10T20:22:27.517Z,42.52
2023-04-10T20:24:54.241Z,42.96
2023-04-10T20:27:20.916Z,42.46
2023-04-10T20:29:47.573Z,41.69
2023-04-10T20:32:14.188Z,41.78
2023-04-10T20:34:40.852Z,42.51
2023-04-10T20:37:07.531Z,42.38
2023-04-10T20:39:34.198Z,41.27
2023-04-10T20:42:01.391Z,41.75
2023-04-10T20:44:28.155Z,42.66
2023-04-10T20:46:54.856Z,42.43
2023-04-10T20:49:22.806Z,42.41
2023-04-10T20:51:49.473Z,41.71
2023-04-10T20:54:19.029Z,42.45
2023-04-10T20:56:46.614Z,42.96
2023-04-10T20:59:13.440Z,42.53
2023-04-10T21:01:40.346Z,42.89
2023-04-10T21:04:07.206Z,42.22
2023-04-10T21:06:33.957Z,42.49
2023-04-10T21:09:00.788Z,42.13
2023-04-10T21:11:27.647Z,42.24
2023-04-10T21:13:54.506Z,42.32
2023-04-10T21:16:21.261Z,42.47
2023-04-10T21:18:48.019Z,43.36
2023-04-10T21:21:14.915Z,42.82
2023-04-10T21:23:41.537Z,42.68
2023-04-10T21:26:08.315Z,42.32
2023-04-10T21:28:34.936Z,41.88
2023-04-10T21:31:01.683Z,42.53
2023-04-10T21:33:28.373Z,42.60
2023-04-10T21:35:55.649Z,43.23
2023-04-10T21:38:23.501Z,42.80
2023-04-10T21:40:54.098Z,43.70
2023-04-10T21:43:21.466Z,43.22
2023-04-10T21:45:48.503Z,42.71
2023-04-10T21:48:15.415Z,43.02
2023-04-10T21:50:42.390Z,44.41
2023-04-10T21:53:09.236Z,43.78
2023-04-10T21:55:35.946Z,44.38
2023-04-10T21:58:02.632Z,43.56
2023-04-10T22:00:29.414Z,43.49
2023-04-10T22:02:56.215Z,43.34
2023-04-10T22:05:24.462Z,44.49
2023-04-10T22:07:52.161Z,44.08
2023-04-10T22:10:19.011Z,43.83
2023-04-10T22:12:48.588Z,44.06
2023-04-10T22:15:15.628Z,44.50
2023-04-10T22:17:42.291Z,45.06
2023-04-10T22:20:09.426Z,43.80
2023-04-10T22:22:36.051Z,44.67
2023-04-10T22:25:02.892Z,44.04
2023-04-10T22:27:29.575Z,43.81
2023-04-10T22:30:03.197Z,44.75
2023-04-10T22:32:31.183Z,44.12
2023-04-10T22:34:59.391Z,44.30
2023-04-10T22:37:26.650Z,44.48
2023-04-10T22:39:53.529Z,44.40
2023-04-10T22:42:20.224Z,45.67
2023-04-10T22:44:46.833Z,44.77
2023-04-10T22:47:13.410Z,44.36
2023-04-10T22:49:40.119Z,44.59
2023-04-10T22:52:07.779Z,45.74
2023-04-10T22:54:34.399Z,45.42
2023-04-10T22:57:01.003Z,45.62
2023-04-10T22:59:27.682Z,44.83
2023-04-10T23:01:54.396Z,46.19
2023-04-10T23:04:21.399Z,45.44
2023-04-10T23:06:48.164Z,46.00
2023-04-10T23:09:14.786Z,46.58
2023-04-10T23:11:41.489Z,46.85
2023-04-10T23:14:08.131Z,47.99
2023-04-10T23:16:34.837Z,48.90
2023-04-10T23:19:01.600Z,48.91
2023-04-10T23:21:28.352Z,48.71
2023-04-10T23:23:55.010Z,49.25
2023-04-10T23:26:21.624Z,49.47
2023-04-10T23:28:48.441Z,49.88
2023-04-10T23:31:15.839Z,52.75
2023-04-10T23:33:42.473Z,54.33
2023-04-10T23:36:09.482Z,54.19
2023-04-10T23:38:36.153Z,56.82
2023-04-10T23:41:03.132Z,57.71
2023-04-10T23:43:29.877Z,57.59
2023-04-10T23:45:56.481Z,57.96
2023-04-10T23:48:23.170Z,61.13
2023-04-10T23:50:49.820Z,63.08
2023-04-10T23:53:16.701Z,64.30
2023-04-10T23:55:43.504Z,63.47
2023-04-10T23:58:10.584Z,65.79
